Terminal Aerodrome Forecast
Issued by NWS

Home | Current Version | Previous Version | Text Only | Print | Product List | Glossary Off
Versions: 1 2 3 4 5 6 7 8 9 10 11 12

000
FTUS45 KGGW 291100
TAFSDY
TAF
KSDY 291138Z 2912/3012 VRB03KT P6SM SCT120
     FM291600 23008KT P6SM VCSH BKN050 OVC080
     FM292100 30013G23KT P6SM BKN080
     FM300100 32010KT P6SM SCT100
      AMD LTD TO CLD VIS AND WIND=

USA.gov is the U.S. government's official web portal to all federal, state and local government web resources and services.